sensor_id;sensor_type;location;lat;lon;timestamp;pressure;altitude;pressure_sealevel;temperature
14023;BMP180;7086;48.116;11.580;2023-02-28T00:00:07;95648.00;;;2.30
14023;BMP180;7086;48.116;11.580;2023-02-28T00:02:41;95657.00;;;2.30
14023;BMP180;7086;48.116;11.580;2023-02-28T00:05:14;95665.00;;;2.30
14023;BMP180;7086;48.116;11.580;2023-02-28T00:07:42;95635.00;;;2.30
14023;BMP180;7086;48.116;11.580;2023-02-28T00:10:19;95665.00;;;2.30
14023;BMP180;7086;48.116;11.580;2023-02-28T00:12:59;95721.00;;;2.20
14023;BMP180;7086;48.116;11.580;2023-02-28T00:15:27;95590.00;;;2.20
14023;BMP180;7086;48.116;11.580;2023-02-28T00:18:01;95709.00;;;2.30
14023;BMP180;7086;48.116;11.580;2023-02-28T00:20:31;95526.00;;;2.30
14023;BMP180;7086;48.116;11.580;2023-02-28T00:22:59;95701.00;;;2.10
14023;BMP180;7086;48.116;11.580;2023-02-28T00:25:28;95601.00;;;2.30
14023;BMP180;7086;48.116;11.580;2023-02-28T00:27:57;95586.00;;;2.30
14023;BMP180;7086;48.116;11.580;2023-02-28T00:30:25;95605.00;;;2.30
14023;BMP180;7086;48.116;11.580;2023-02-28T00:32:52;95661.00;;;2.30
14023;BMP180;7086;48.116;11.580;2023-02-28T00:35:20;95638.00;;;2.30
14023;BMP180;7086;48.116;11.580;2023-02-28T00:37:49;95710.00;;;2.20
14023;BMP180;7086;48.116;11.580;2023-02-28T00:40:17;95678.00;;;2.20
14023;BMP180;7086;48.116;11.580;2023-02-28T00:42:45;95678.00;;;2.20
14023;BMP180;7086;48.116;11.580;2023-02-28T00:45:13;95584.00;;;2.00
14023;BMP180;7086;48.116;11.580;2023-02-28T00:47:47;95576.00;;;1.90
14023;BMP180;7086;48.116;11.580;2023-02-28T00:50:19;95540.00;;;2.20
14023;BMP180;7086;48.116;11.580;2023-02-28T00:52:57;95695.00;;;1.60
14023;BMP180;7086;48.116;11.580;2023-02-28T00:55:30;95568.00;;;2.20
14023;BMP180;7086;48.116;11.580;2023-02-28T00:57:58;95698.00;;;1.90
14023;BMP180;7086;48.116;11.580;2023-02-28T01:00:25;95671.00;;;2.10
14023;BMP180;7086;48.116;11.580;2023-02-28T01:02:53;95648.00;;;2.20
14023;BMP180;7086;48.116;11.580;2023-02-28T01:05:21;95696.00;;;2.00
14023;BMP180;7086;48.116;11.580;2023-02-28T01:07:50;95669.00;;;2.00
14023;BMP180;7086;48.116;11.580;2023-02-28T01:10:19;95594.00;;;2.10
14023;BMP180;7086;48.116;11.580;2023-02-28T01:12:49;95688.00;;;1.70
14023;BMP180;7086;48.116;11.580;2023-02-28T01:15:17;95664.00;;;2.10
14023;BMP180;7086;48.116;11.580;2023-02-28T01:17:44;95648.00;;;2.10
14023;BMP180;7086;48.116;11.580;2023-02-28T01:20:13;95704.00;;;2.10
14023;BMP180;7086;48.116;11.580;2023-02-28T01:22:40;95656.00;;;2.00
14023;BMP180;7086;48.116;11.580;2023-02-28T01:25:08;95670.00;;;2.00
14023;BMP180;7086;48.116;11.580;2023-02-28T01:27:37;95636.00;;;1.90
14023;BMP180;7086;48.116;11.580;2023-02-28T01:30:08;95490.00;;;1.70
14023;BMP180;7086;48.116;11.580;2023-02-28T01:32:36;95692.00;;;1.50
14023;BMP180;7086;48.116;11.580;2023-02-28T01:35:05;95684.00;;;2.00
14023;BMP180;7086;48.116;11.580;2023-02-28T01:37:32;95569.00;;;1.60
14023;BMP180;7086;48.116;11.580;2023-02-28T01:40:00;95648.00;;;2.00
14023;BMP180;7086;48.116;11.580;2023-02-28T01:42:28;95675.00;;;1.90
14023;BMP180;7086;48.116;11.580;2023-02-28T01:45:02;95615.00;;;1.90
14023;BMP180;7086;48.116;11.580;2023-02-28T01:47:38;95630.00;;;1.90
14023;BMP180;7086;48.116;11.580;2023-02-28T01:50:11;95589.00;;;1.90
14023;BMP180;7086;48.116;11.580;2023-02-28T01:52:41;95568.00;;;1.90
14023;BMP180;7086;48.116;11.580;2023-02-28T01:55:17;95648.00;;;1.80
14023;BMP180;7086;48.116;11.580;2023-02-28T01:57:50;95656.00;;;1.40
14023;BMP180;7086;48.116;11.580;2023-02-28T02:00:32;95593.00;;;1.80
14023;BMP180;7086;48.116;11.580;2023-02-28T02:03:06;95644.00;;;1.80
14023;BMP180;7086;48.116;11.580;2023-02-28T02:05:38;95549.00;;;1.80
14023;BMP180;7086;48.116;11.580;2023-02-28T02:08:09;95598.00;;;1.90
14023;BMP180;7086;48.116;11.580;2023-02-28T02:10:43;95647.00;;;1.90
14023;BMP180;7086;48.116;11.580;2023-02-28T02:13:43;95510.00;;;1.80
14023;BMP180;7086;48.116;11.580;2023-02-28T02:16:42;95610.00;;;1.80
14023;BMP180;7086;48.116;11.580;2023-02-28T02:25:59;95596.00;;;1.80
14023;BMP180;7086;48.116;11.580;2023-02-28T02:29:16;95521.00;;;1.70
14023;BMP180;7086;48.116;11.580;2023-02-28T02:32:16;95647.00;;;1.70
14023;BMP180;7086;48.116;11.580;2023-02-28T02:35:03;95603.00;;;1.70
14023;BMP180;7086;48.116;11.580;2023-02-28T02:37:43;95639.00;;;1.70
14023;BMP180;7086;48.116;11.580;2023-02-28T02:40:19;95539.00;;;1.60
14023;BMP180;7086;48.116;11.580;2023-02-28T02:42:52;95604.00;;;1.60
14023;BMP180;7086;48.116;11.580;2023-02-28T02:45:27;95610.00;;;1.60
14023;BMP180;7086;48.116;11.580;2023-02-28T02:48:06;95591.00;;;1.60
14023;BMP180;7086;48.116;11.580;2023-02-28T02:50:42;95615.00;;;1.20
14023;BMP180;7086;48.116;11.580;2023-02-28T02:53:13;95534.00;;;1.60
14023;BMP180;7086;48.116;11.580;2023-02-28T02:55:46;95524.00;;;1.60
14023;BMP180;7086;48.116;11.580;2023-02-28T02:58:24;95589.00;;;1.60
14023;BMP180;7086;48.116;11.580;2023-02-28T03:00:58;95471.00;;;1.60
14023;BMP180;7086;48.116;11.580;2023-02-28T03:03:28;95660.00;;;1.60
14023;BMP180;7086;48.116;11.580;2023-02-28T03:06:00;95554.00;;;1.60
14023;BMP180;7086;48.116;11.580;2023-02-28T03:08:33;95593.00;;;1.10
14023;BMP180;7086;48.116;11.580;2023-02-28T03:11:05;95572.00;;;1.60
14023;BMP180;7086;48.116;11.580;2023-02-28T03:14:05;95640.00;;;1.60
14023;BMP180;7086;48.116;11.580;2023-02-28T03:19:50;95633.00;;;1.50
14023;BMP180;7086;48.116;11.580;2023-02-28T03:22:47;95537.00;;;1.50
14023;BMP180;7086;48.116;11.580;2023-02-28T03:25:29;95555.00;;;1.50
14023;BMP180;7086;48.116;11.580;2023-02-28T03:28:07;95633.00;;;1.50
14023;BMP180;7086;48.116;11.580;2023-02-28T03:30:43;95582.00;;;1.50
14023;BMP180;7086;48.116;11.580;2023-02-28T03:33:18;95620.00;;;0.90
14023;BMP180;7086;48.116;11.580;2023-02-28T03:35:54;95596.00;;;1.30
14023;BMP180;7086;48.116;11.580;2023-02-28T03:38:31;95498.00;;;1.40
14023;BMP180;7086;48.116;11.580;2023-02-28T03:41:07;95625.00;;;1.40
14023;BMP180;7086;48.116;11.580;2023-02-28T03:43:44;95489.00;;;1.40
14023;BMP180;7086;48.116;11.580;2023-02-28T03:46:19;95531.00;;;1.40
14023;BMP180;7086;48.116;11.580;2023-02-28T03:48:54;95508.00;;;1.40
14023;BMP180;7086;48.116;11.580;2023-02-28T03:51:25;95590.00;;;1.40
14023;BMP180;7086;48.116;11.580;2023-02-28T03:53:59;95567.00;;;1.40
14023;BMP180;7086;48.116;11.580;2023-02-28T03:56:34;95600.00;;;1.40
14023;BMP180;7086;48.116;11.580;2023-02-28T03:59:13;95571.00;;;1.30
14023;BMP180;7086;48.116;11.580;2023-02-28T04:01:45;95636.00;;;1.40
14023;BMP180;7086;48.116;11.580;2023-02-28T04:04:14;95524.00;;;1.40
14023;BMP180;7086;48.116;11.580;2023-02-28T04:06:42;95625.00;;;1.40
14023;BMP180;7086;48.116;11.580;2023-02-28T04:09:14;95654.00;;;1.40
14023;BMP180;7086;48.116;11.580;2023-02-28T04:11:44;95576.00;;;1.40
14023;BMP180;7086;48.116;11.580;2023-02-28T04:14:13;95553.00;;;1.30
14023;BMP180;7086;48.116;11.580;2023-02-28T04:16:42;95656.00;;;1.20
14023;BMP180;7086;48.116;11.580;2023-02-28T04:19:11;95641.00;;;1.40
14023;BMP180;7086;48.116;11.580;2023-02-28T04:21:43;95648.00;;;1.40
14023;BMP180;7086;48.116;11.580;2023-02-28T04:24:14;95666.00;;;1.40
14023;BMP180;7086;48.116;11.580;2023-02-28T04:26:44;95620.00;;;1.40
14023;BMP180;7086;48.116;11.580;2023-02-28T04:29:14;95664.00;;;1.40
14023;BMP180;7086;48.116;11.580;2023-02-28T04:31:44;95686.00;;;1.40
14023;BMP180;7086;48.116;11.580;2023-02-28T04:34:12;95676.00;;;1.20
14023;BMP180;7086;48.116;11.580;2023-02-28T04:36:39;95564.00;;;1.50
14023;BMP180;7086;48.116;11.580;2023-02-28T04:39:07;95643.00;;;1.40
14023;BMP180;7086;48.116;11.580;2023-02-28T04:41:37;95663.00;;;1.40
14023;BMP180;7086;48.116;11.580;2023-02-28T04:44:04;95507.00;;;1.50
14023;BMP180;7086;48.116;11.580;2023-02-28T04:46:32;95628.00;;;1.50
14023;BMP180;7086;48.116;11.580;2023-02-28T04:48:59;95609.00;;;1.60
14023;BMP180;7086;48.116;11.580;2023-02-28T04:51:27;95514.00;;;1.40
14023;BMP180;7086;48.116;11.580;2023-02-28T04:53:55;95607.00;;;1.60
14023;BMP180;7086;48.116;11.580;2023-02-28T04:56:22;95677.00;;;1.60
14023;BMP180;7086;48.116;11.580;2023-02-28T04:58:51;95682.00;;;1.60
14023;BMP180;7086;48.116;11.580;2023-02-28T05:01:24;95692.00;;;1.10
14023;BMP180;7086;48.116;11.580;2023-02-28T05:03:55;95610.00;;;1.70
14023;BMP180;7086;48.116;11.580;2023-02-28T05:06:27;95670.00;;;1.50
14023;BMP180;7086;48.116;11.580;2023-02-28T05:09:03;95687.00;;;1.70
14023;BMP180;7086;48.116;11.580;2023-02-28T05:11:34;95648.00;;;1.70
14023;BMP180;7086;48.116;11.580;2023-02-28T05:14:13;95709.00;;;1.80
14023;BMP180;7086;48.116;11.580;2023-02-28T05:16:42;95642.00;;;1.80
14023;BMP180;7086;48.116;11.580;2023-02-28T05:19:11;95590.00;;;1.30
14023;BMP180;7086;48.116;11.580;2023-02-28T05:21:50;95628.00;;;1.80
14023;BMP180;7086;48.116;11.580;2023-02-28T05:24:22;95669.00;;;1.90
14023;BMP180;7086;48.116;11.580;2023-02-28T05:26:54;95674.00;;;1.90
14023;BMP180;7086;48.116;11.580;2023-02-28T05:29:54;95676.00;;;2.00
14023;BMP180;7086;48.116;11.580;2023-02-28T05:32:25;95688.00;;;2.00
14023;BMP180;7086;48.116;11.580;2023-02-28T05:34:54;95651.00;;;2.00
14023;BMP180;7086;48.116;11.580;2023-02-28T05:37:21;95652.00;;;2.00
14023;BMP180;7086;48.116;11.580;2023-02-28T05:39:49;95681.00;;;2.10
14023;BMP180;7086;48.116;11.580;2023-02-28T05:42:16;95681.00;;;2.10
14023;BMP180;7086;48.116;11.580;2023-02-28T05:44:44;95668.00;;;2.10
14023;BMP180;7086;48.116;11.580;2023-02-28T05:47:14;95600.00;;;2.20
14023;BMP180;7086;48.116;11.580;2023-02-28T05:49:42;95679.00;;;2.20
14023;BMP180;7086;48.116;11.580;2023-02-28T05:52:10;95598.00;;;2.20
14023;BMP180;7086;48.116;11.580;2023-02-28T05:54:38;95678.00;;;2.20
14023;BMP180;7086;48.116;11.580;2023-02-28T05:57:07;95643.00;;;2.10
14023;BMP180;7086;48.116;11.580;2023-02-28T05:59:35;95648.00;;;2.30
14023;BMP180;7086;48.116;11.580;2023-02-28T06:02:08;95711.00;;;2.30
14023;BMP180;7086;48.116;11.580;2023-02-28T06:04:44;95687.00;;;2.40
14023;BMP180;7086;48.116;11.580;2023-02-28T06:07:12;95723.00;;;2.40
14023;BMP180;7086;48.116;11.580;2023-02-28T06:09:40;95629.00;;;2.40
14023;BMP180;7086;48.116;11.580;2023-02-28T06:12:07;95703.00;;;2.50
14023;BMP180;7086;48.116;11.580;2023-02-28T06:14:36;95645.00;;;2.50
14023;BMP180;7086;48.116;11.580;2023-02-28T06:17:10;95681.00;;;2.50
14023;BMP180;7086;48.116;11.580;2023-02-28T06:19:38;95653.00;;;2.60
14023;BMP180;7086;48.116;11.580;2023-02-28T06:22:22;95659.00;;;2.50
14023;BMP180;7086;48.116;11.580;2023-02-28T06:24:50;95705.00;;;2.60
14023;BMP180;7086;48.116;11.580;2023-02-28T06:27:23;95631.00;;;2.60
14023;BMP180;7086;48.116;11.580;2023-02-28T06:29:54;95714.00;;;2.50
14023;BMP180;7086;48.116;11.580;2023-02-28T06:32:23;95744.00;;;2.70
14023;BMP180;7086;48.116;11.580;2023-02-28T06:35:02;95711.00;;;2.70
14023;BMP180;7086;48.116;11.580;2023-02-28T06:38:02;95705.00;;;2.70
14023;BMP180;7086;48.116;11.580;2023-02-28T06:40:31;95718.00;;;2.70
14023;BMP180;7086;48.116;11.580;2023-02-28T06:43:13;95663.00;;;2.70
14023;BMP180;7086;48.116;11.580;2023-02-28T06:45:59;95728.00;;;2.70
14023;BMP180;7086;48.116;11.580;2023-02-28T06:48:42;95695.00;;;2.70
14023;BMP180;7086;48.116;11.580;2023-02-28T06:51:23;95692.00;;;2.40
14023;BMP180;7086;48.116;11.580;2023-02-28T06:57:54;95651.00;;;2.40
14023;BMP180;7086;48.116;11.580;2023-02-28T07:00:25;95772.00;;;2.80
14023;BMP180;7086;48.116;11.580;2023-02-28T07:03:07;95676.00;;;2.80
14023;BMP180;7086;48.116;11.580;2023-02-28T07:05:37;95723.00;;;2.90
14023;BMP180;7086;48.116;11.580;2023-02-28T07:08:19;95715.00;;;2.90
14023;BMP180;7086;48.116;11.580;2023-02-28T07:10:51;95748.00;;;2.90
14023;BMP180;7086;48.116;11.580;2023-02-28T07:13:39;95759.00;;;2.80
14023;BMP180;7086;48.116;11.580;2023-02-28T07:16:11;95754.00;;;3.00
14023;BMP180;7086;48.116;11.580;2023-02-28T07:18:55;95764.00;;;2.40
14023;BMP180;7086;48.116;11.580;2023-02-28T07:21:44;95765.00;;;2.90
14023;BMP180;7086;48.116;11.580;2023-02-28T07:24:26;95708.00;;;3.00
14023;BMP180;7086;48.116;11.580;2023-02-28T07:27:07;95780.00;;;3.00
14023;BMP180;7086;48.116;11.580;2023-02-28T07:29:54;95745.00;;;3.00
14023;BMP180;7086;48.116;11.580;2023-02-28T07:32:27;95780.00;;;3.10
14023;BMP180;7086;48.116;11.580;2023-02-28T07:35:09;95688.00;;;3.10
14023;BMP180;7086;48.116;11.580;2023-02-28T07:37:50;95729.00;;;3.10
14023;BMP180;7086;48.116;11.580;2023-02-28T07:40:24;95747.00;;;3.10
14023;BMP180;7086;48.116;11.580;2023-02-28T07:43:05;95680.00;;;3.10
14023;BMP180;7086;48.116;11.580;2023-02-28T07:45:50;95679.00;;;3.10
14023;BMP180;7086;48.116;11.580;2023-02-28T07:48:19;95614.00;;;3.20
14023;BMP180;7086;48.116;11.580;2023-02-28T07:50:54;95659.00;;;3.00
14023;BMP180;7086;48.116;11.580;2023-02-28T07:53:23;95659.00;;;3.20
14023;BMP180;7086;48.116;11.580;2023-02-28T07:56:06;95773.00;;;3.20
14023;BMP180;7086;48.116;11.580;2023-02-28T07:58:37;95715.00;;;3.20
14023;BMP180;7086;48.116;11.580;2023-02-28T08:01:50;95751.00;;;3.30
14023;BMP180;7086;48.116;11.580;2023-02-28T08:04:19;95739.00;;;3.30
14023;BMP180;7086;48.116;11.580;2023-02-28T08:07:00;95758.00;;;3.40
14023;BMP180;7086;48.116;11.580;2023-02-28T08:09:30;95777.00;;;3.40
14023;BMP180;7086;48.116;11.580;2023-02-28T08:11:59;95640.00;;;3.40
14023;BMP180;7086;48.116;11.580;2023-02-28T08:14:41;95700.00;;;3.50
14023;BMP180;7086;48.116;11.580;2023-02-28T08:20:56;95769.00;;;3.50
14023;BMP180;7086;48.116;11.580;2023-02-28T08:23:37;95694.00;;;3.50
14023;BMP180;7086;48.116;11.580;2023-02-28T08:26:19;95783.00;;;3.50
14023;BMP180;7086;48.116;11.580;2023-02-28T08:29:01;95765.00;;;3.60
14023;BMP180;7086;48.116;11.580;2023-02-28T08:31:43;95786.00;;;3.60
14023;BMP180;7086;48.116;11.580;2023-02-28T08:34:39;95771.00;;;3.50
14023;BMP180;7086;48.116;11.580;2023-02-28T08:37:34;95746.00;;;3.70
14023;BMP180;7086;48.116;11.580;2023-02-28T08:40:03;95777.00;;;3.80
14023;BMP180;7086;48.116;11.580;2023-02-28T08:42:45;95802.00;;;3.80
14023;BMP180;7086;48.116;11.580;2023-02-28T08:45:26;95773.00;;;3.80
14023;BMP180;7086;48.116;11.580;2023-02-28T08:48:08;95655.00;;;3.40
14023;BMP180;7086;48.116;11.580;2023-02-28T08:51:03;95800.00;;;3.80
14023;BMP180;7086;48.116;11.580;2023-02-28T08:53:46;95812.00;;;3.90
14023;BMP180;7086;48.116;11.580;2023-02-28T08:56:27;95718.00;;;3.90
14023;BMP180;7086;48.116;11.580;2023-02-28T08:58:57;95798.00;;;3.90
14023;BMP180;7086;48.116;11.580;2023-02-28T09:01:39;95790.00;;;3.90
14023;BMP180;7086;48.116;11.580;2023-02-28T09:04:20;95793.00;;;3.90
14023;BMP180;7086;48.116;11.580;2023-02-28T09:06:48;95803.00;;;3.90
14023;BMP180;7086;48.116;11.580;2023-02-28T09:10:02;95783.00;;;4.00
14023;BMP180;7086;48.116;11.580;2023-02-28T09:12:34;95800.00;;;4.00
14023;BMP180;7086;48.116;11.580;2023-02-28T09:15:16;95788.00;;;4.00
14023;BMP180;7086;48.116;11.580;2023-02-28T09:17:57;95814.00;;;4.10
14023;BMP180;7086;48.116;11.580;2023-02-28T09:20:27;95753.00;;;4.10
14023;BMP180;7086;48.116;11.580;2023-02-28T09:23:10;95802.00;;;4.10
14023;BMP180;7086;48.116;11.580;2023-02-28T09:32:33;95788.00;;;4.20
14023;BMP180;7086;48.116;11.580;2023-02-28T09:35:02;95802.00;;;3.70
14023;BMP180;7086;48.116;11.580;2023-02-28T09:37:49;95747.00;;;4.30
14023;BMP180;7086;48.116;11.580;2023-02-28T09:40:31;95769.00;;;4.20
14023;BMP180;7086;48.116;11.580;2023-02-28T09:43:00;95774.00;;;4.10
14023;BMP180;7086;48.116;11.580;2023-02-28T09:46:08;95825.00;;;4.30
14023;BMP180;7086;48.116;11.580;2023-02-28T10:07:06;95848.00;;;4.50
14023;BMP180;7086;48.116;11.580;2023-02-28T10:09:56;95755.00;;;4.50
14023;BMP180;7086;48.116;11.580;2023-02-28T10:12:45;95843.00;;;4.50
14023;BMP180;7086;48.116;11.580;2023-02-28T10:15:42;95839.00;;;4.50
14023;BMP180;7086;48.116;11.580;2023-02-28T10:18:39;95804.00;;;4.50
14023;BMP180;7086;48.116;11.580;2023-02-28T10:21:30;95871.00;;;4.60
14023;BMP180;7086;48.116;11.580;2023-02-28T15:01:43;95794.00;;;8.60
14023;BMP180;7086;48.116;11.580;2023-02-28T15:04:27;95787.00;;;8.60
14023;BMP180;7086;48.116;11.580;2023-02-28T15:07:13;95761.00;;;8.50
14023;BMP180;7086;48.116;11.580;2023-02-28T15:10:13;95752.00;;;8.50
14023;BMP180;7086;48.116;11.580;2023-02-28T15:12:57;95813.00;;;8.50
14023;BMP180;7086;48.116;11.580;2023-02-28T15:16:10;95794.00;;;8.40
14023;BMP180;7086;48.116;11.580;2023-02-28T23:10:56;95693.00;;;6.20
14023;BMP180;7086;48.116;11.580;2023-02-28T23:16:35;95838.00;;;6.30
14023;BMP180;7086;48.116;11.580;2023-02-28T23:19:53;95732.00;;;6.30
14023;BMP180;7086;48.116;11.580;2023-02-28T23:22:39;95821.00;;;6.30
14023;BMP180;7086;48.116;11.580;2023-02-28T23:25:42;95791.00;;;6.30
14023;BMP180;7086;48.116;11.580;2023-02-28T23:28:26;95834.00;;;6.20
14023;BMP180;7086;48.116;11.580;2023-02-28T23:41:47;95809.00;;;6.20
14023;BMP180;7086;48.116;11.580;2023-02-28T23:44:38;95680.00;;;6.20
14023;BMP180;7086;48.116;11.580;2023-02-28T23:47:38;95815.00;;;6.10
14023;BMP180;7086;48.116;11.580;2023-02-28T23:51:14;95812.00;;;6.20
14023;BMP180;7086;48.116;11.580;2023-02-28T23:53:45;95777.00;;;6.20
14023;BMP180;7086;48.116;11.580;2023-02-28T23:56:16;95798.00;;;6.20
14023;BMP180;7086;48.116;11.580;2023-02-28T23:58:46;95782.00;;;6.20
